createdAt,value
2019-06-15T00:02:10.832Z,99561.59
2019-06-15T00:07:29.390Z,99543.42
2019-06-15T00:12:48.028Z,99536.00
2019-06-15T00:18:06.659Z,99522.56
2019-06-15T00:23:25.312Z,99511.45
2019-06-15T00:28:43.872Z,99526.78
2019-06-15T00:34:02.460Z,99519.88
2019-06-15T00:39:21.084Z,99518.02
2019-06-15T00:44:39.723Z,99516.00
2019-06-15T00:49:58.351Z,99539.72
2019-06-15T00:55:16.996Z,99520.89
2019-06-15T01:00:35.633Z,99513.97
2019-06-15T01:05:54.202Z,99501.16
2019-06-15T01:11:12.847Z,99477.13
2019-06-15T01:16:31.597Z,99471.57
2019-06-15T01:21:50.227Z,99453.59
2019-06-15T01:27:09.683Z,99441.80
2019-06-15T01:32:28.306Z,99426.86
2019-06-15T01:37:46.861Z,99408.36
2019-06-15T01:43:05.492Z,99401.14
2019-06-15T01:48:24.131Z,99384.17
2019-06-15T01:53:42.762Z,99392.08
2019-06-15T01:59:01.394Z,99388.88
2019-06-15T02:04:20.024Z,99381.33
2019-06-15T02:09:38.599Z,99377.78
2019-06-15T02:14:57.235Z,99380.66
2019-06-15T02:20:16.988Z,99372.59
2019-06-15T02:25:36.671Z,99370.25
2019-06-15T02:30:55.870Z,99374.76
2019-06-15T02:36:14.503Z,99382.66
2019-06-15T02:41:33.967Z,99376.28
2019-06-15T02:46:52.605Z,99371.06
2019-06-15T02:52:11.330Z,99378.48
2019-06-15T02:57:29.966Z,99385.70
2019-06-15T03:02:48.587Z,99386.35
2019-06-15T03:08:07.230Z,99385.35
2019-06-15T03:13:26.965Z,99390.19
2019-06-15T03:18:45.540Z,99383.81
2019-06-15T03:24:04.695Z,99376.91
2019-06-15T03:29:23.333Z,99368.83
2019-06-15T03:34:41.967Z,99361.77
2019-06-15T03:40:00.535Z,99359.94
2019-06-15T03:45:19.197Z,99358.13
2019-06-15T03:50:37.817Z,99373.61
2019-06-15T03:55:56.448Z,99367.03
2019-06-15T04:01:39.141Z,99371.41
2019-06-15T04:06:57.780Z,99369.04
2019-06-15T04:12:16.803Z,99383.70
2019-06-15T04:17:35.432Z,99416.19
2019-06-15T04:22:53.997Z,99452.83
2019-06-15T04:28:12.754Z,99464.89
2019-06-15T04:33:31.314Z,99444.87
2019-06-15T04:38:49.958Z,99431.33
2019-06-15T04:44:08.587Z,99424.94
2019-06-15T04:49:27.236Z,99431.02
2019-06-15T04:54:45.817Z,99439.10
2019-06-15T05:00:07.383Z,99448.53
2019-06-15T05:05:25.947Z,99450.03
2019-06-15T05:10:44.882Z,99441.77
2019-06-15T05:16:03.514Z,99425.48
2019-06-15T05:21:22.194Z,99450.69
2019-06-15T05:26:40.714Z,99446.17
2019-06-15T05:31:59.343Z,99439.83
2019-06-15T05:37:18.565Z,99449.74
2019-06-15T05:42:37.214Z,99453.11
2019-06-15T05:47:55.956Z,99462.05
2019-06-15T05:53:14.597Z,99478.59
2019-06-15T05:58:33.178Z,99486.68
2019-06-15T06:10:06.574Z,99491.87
2019-06-15T06:15:26.894Z,99500.87
2019-06-15T06:20:45.467Z,99502.86
2019-06-15T06:26:04.169Z,99517.77
2019-06-15T06:31:22.775Z,99516.31
2019-06-15T06:36:41.388Z,99516.85
2019-06-15T06:42:00.285Z,99505.73
2019-06-15T06:47:18.973Z,99505.71
2019-06-15T06:52:37.635Z,99529.41
2019-06-15T06:57:57.341Z,99530.75
2019-06-15T07:03:16.120Z,99530.45
2019-06-15T07:08:34.699Z,99544.89
2019-06-15T07:13:53.267Z,99548.88
2019-06-15T07:19:11.840Z,99553.94
2019-06-15T07:24:30.327Z,99559.15
2019-06-15T07:29:48.958Z,99560.31
2019-06-15T07:35:08.986Z,99563.03
2019-06-15T07:40:27.904Z,99559.80
2019-06-15T07:45:46.823Z,99569.05
2019-06-15T07:51:05.440Z,99551.85
2019-06-15T07:56:24.057Z,99555.51
2019-06-15T08:01:42.687Z,99560.95
2019-06-15T08:07:01.313Z,99554.28
2019-06-15T08:12:19.959Z,99552.05
2019-06-15T08:17:38.676Z,99551.42
2019-06-15T08:22:57.305Z,99555.06
2019-06-15T08:28:15.926Z,99562.24
2019-06-15T08:33:34.547Z,99580.61
2019-06-15T08:38:53.210Z,99584.00
2019-06-15T08:44:11.819Z,99596.87
2019-06-15T08:49:30.437Z,99595.27
2019-06-15T08:54:49.076Z,99603.37
2019-06-15T09:05:19.514Z,99622.40
2019-06-15T09:10:38.166Z,99634.44
2019-06-15T09:15:56.891Z,99647.27
2019-06-15T09:21:15.522Z,99658.95
2019-06-15T09:26:34.159Z,99675.50
2019-06-15T09:31:52.720Z,99690.13
2019-06-15T09:37:11.265Z,99684.92
2019-06-15T09:42:30.213Z,99694.05
2019-06-15T09:47:48.843Z,99711.23
2019-06-15T09:53:07.458Z,99716.50
2019-06-15T09:58:26.097Z,99716.74
2019-06-15T10:03:44.647Z,99729.77
2019-06-15T10:09:03.575Z,99745.32
2019-06-15T10:14:22.199Z,99734.52
2019-06-15T10:19:40.778Z,99746.55
2019-06-15T10:24:59.403Z,99755.18
2019-06-15T10:30:18.259Z,99756.91
2019-06-15T10:35:36.882Z,99769.73
2019-06-15T10:40:55.444Z,99776.31
2019-06-15T10:46:14.385Z,99782.86
2019-06-15T10:51:33.009Z,99788.66
2019-06-15T10:56:50.851Z,99800.23
2019-06-15T11:02:09.403Z,99815.89
2019-06-15T11:07:28.033Z,99798.77
2019-06-15T11:12:47.017Z,99804.73
2019-06-15T11:18:05.024Z,99825.66
2019-06-15T11:23:22.866Z,99832.11
2019-06-15T11:28:41.056Z,99841.83
2019-06-15T11:33:59.754Z,99847.18
2019-06-15T11:39:18.826Z,99858.36
2019-06-15T11:44:37.412Z,99855.34
2019-06-15T11:49:56.360Z,99867.02
2019-06-15T11:55:14.993Z,99878.45
2019-06-15T12:00:41.247Z,99885.86
2019-06-15T12:05:59.936Z,99879.85
2019-06-15T12:11:19.452Z,99888.44
2019-06-15T12:16:37.299Z,99888.39
2019-06-15T12:21:55.934Z,99889.81
2019-06-15T12:27:14.557Z,99887.23
2019-06-15T12:32:32.339Z,99896.20
2019-06-15T12:37:50.195Z,99898.06
2019-06-15T12:43:08.769Z,99911.50
2019-06-15T12:48:27.405Z,99900.50
2019-06-15T12:53:46.272Z,99907.83
2019-06-15T12:59:04.916Z,99912.89
2019-06-15T13:04:23.632Z,99922.41
2019-06-15T13:09:42.263Z,99932.17
2019-06-15T13:15:00.890Z,99920.44
2019-06-15T13:20:19.930Z,99925.23
2019-06-15T13:25:38.551Z,99940.23
2019-06-15T13:30:57.199Z,99942.22
2019-06-15T13:36:15.830Z,99942.50
2019-06-15T13:41:34.387Z,99942.31
2019-06-15T13:46:53.010Z,99944.58
2019-06-15T13:52:11.639Z,99940.52
2019-06-15T13:57:30.268Z,99944.20
2019-06-15T14:02:48.887Z,99954.10
2019-06-15T14:08:07.475Z,99941.04
2019-06-15T14:13:26.042Z,99946.82
2019-06-15T14:18:44.678Z,99952.86
2019-06-15T14:24:03.300Z,99952.86
2019-06-15T14:29:21.863Z,99956.47
2019-06-15T14:34:40.509Z,99956.03
2019-06-15T14:39:59.071Z,99954.65
2019-06-15T14:45:18.335Z,99943.50
2019-06-15T14:50:36.969Z,99953.95
2019-06-15T14:55:56.564Z,99951.86
2019-06-15T15:01:16.776Z,99943.27
2019-06-15T15:06:36.888Z,99953.00
2019-06-15T15:11:56.603Z,99970.66
2019-06-15T15:17:17.238Z,99975.30
2019-06-15T15:22:37.150Z,99972.49
2019-06-15T15:27:57.117Z,99971.27
2019-06-15T15:33:16.009Z,99978.45
2019-06-15T15:38:36.183Z,99978.45
2019-06-15T15:43:54.841Z,99975.03
2019-06-15T15:49:16.081Z,99984.20
2019-06-15T15:54:36.025Z,99984.59
2019-06-15T15:59:56.341Z,99980.14
2019-06-15T16:05:16.619Z,99977.61
2019-06-15T16:10:37.411Z,99983.72
2019-06-15T16:15:55.597Z,99988.33
2019-06-15T16:21:16.668Z,99986.72
2019-06-15T16:26:37.375Z,99977.28
2019-06-15T16:31:56.439Z,99976.24
2019-06-15T16:37:16.980Z,99976.05
2019-06-15T16:42:36.557Z,99978.36
2019-06-15T16:47:55.279Z,99975.84
2019-06-15T16:53:16.655Z,99981.25
2019-06-15T16:58:36.324Z,99981.64
2019-06-15T17:03:56.880Z,99973.55
2019-06-15T17:09:16.895Z,99983.54
2019-06-15T17:14:36.451Z,99977.67
2019-06-15T17:19:56.953Z,99983.13
2019-06-15T17:25:16.596Z,99969.59
2019-06-15T17:30:37.058Z,99969.59
2019-06-15T17:36:02.523Z,99970.26
2019-06-15T17:41:17.438Z,99963.14
2019-06-15T17:46:36.531Z,99965.35
2019-06-15T17:51:55.146Z,99962.20
2019-06-15T17:57:13.773Z,99975.92
2019-06-15T18:02:32.390Z,99963.70
2019-06-15T18:07:50.936Z,99961.95
2019-06-15T18:13:09.574Z,99968.43
2019-06-15T18:18:28.141Z,99965.57
2019-06-15T18:23:47.082Z,99972.64
2019-06-15T18:29:05.635Z,99967.73
2019-06-15T18:34:24.201Z,99968.81
2019-06-15T18:39:42.768Z,99967.65
2019-06-15T18:45:01.459Z,99967.92
2019-06-15T18:50:26.665Z,99964.03
2019-06-15T18:55:47.400Z,99964.25
2019-06-15T19:01:06.996Z,99961.10
2019-06-15T19:06:26.523Z,99960.23
2019-06-15T19:11:45.139Z,99970.88
2019-06-15T19:17:05.924Z,99974.23
2019-06-15T19:22:26.994Z,99976.85
2019-06-15T19:27:44.497Z,99982.75
2019-06-15T19:33:03.672Z,99991.23
2019-06-15T19:38:22.257Z,100004.70
2019-06-15T19:43:40.891Z,100013.89
2019-06-15T19:48:59.451Z,100023.05
2019-06-15T19:54:18.016Z,100021.93
2019-06-15T19:59:36.717Z,100036.53
2019-06-15T20:05:03.173Z,100041.82
2019-06-15T20:10:17.333Z,100064.57
2019-06-15T20:15:37.646Z,100055.70
2019-06-15T20:20:56.466Z,100053.87
2019-06-15T20:26:16.082Z,100058.33
2019-06-15T20:31:36.975Z,100071.77
2019-06-15T20:36:55.258Z,100092.18
2019-06-15T20:42:16.276Z,100080.87
2019-06-15T20:47:34.341Z,100081.86
2019-06-15T20:52:53.054Z,100076.62
2019-06-15T20:58:12.044Z,100075.91
2019-06-15T21:03:30.593Z,100073.00
2019-06-15T21:08:49.281Z,100084.64
2019-06-15T21:14:07.933Z,100087.69
2019-06-15T21:19:26.490Z,100097.45
2019-06-15T21:24:46.379Z,100099.76
2019-06-15T21:30:09.167Z,100113.11
2019-06-15T21:35:27.720Z,100123.78
2019-06-15T21:40:47.552Z,100134.73
2019-06-15T21:46:06.606Z,100139.16
2019-06-15T21:51:27.021Z,100133.92
2019-06-15T21:56:45.489Z,100138.13
2019-06-15T22:02:06.767Z,100144.56
2019-06-15T22:07:26.141Z,100153.56
2019-06-15T22:12:44.824Z,100157.92
2019-06-15T22:18:03.458Z,100153.33
2019-06-15T22:23:22.099Z,100160.60
2019-06-15T22:28:40.742Z,100171.34
2019-06-15T22:33:59.389Z,100181.09
2019-06-15T22:39:18.045Z,100193.17
2019-06-15T22:44:37.234Z,100204.70
2019-06-15T22:49:56.387Z,100210.07
2019-06-15T22:55:16.609Z,100217.83
2019-06-15T23:00:37.553Z,100219.04
2019-06-15T23:05:57.188Z,100217.48
2019-06-15T23:11:17.553Z,100224.63
2019-06-15T23:16:36.947Z,100230.45
2019-06-15T23:21:57.233Z,100237.23
2019-06-15T23:27:16.589Z,100236.23
2019-06-15T23:32:35.222Z,100227.63
2019-06-15T23:37:55.935Z,100236.00
2019-06-15T23:43:16.564Z,100241.39
2019-06-15T23:48:36.461Z,100231.98
2019-06-15T23:53:57.141Z,100240.03
2019-06-15T23:59:17.734Z,100245.16
